createdAt,value
2023-02-11T00:00:40.115Z,5.00
2023-02-11T00:03:06.934Z,4.32
2023-02-11T00:05:33.890Z,4.57
2023-02-11T00:08:00.479Z,5.28
2023-02-11T00:10:27.049Z,4.80
2023-02-11T00:12:53.565Z,4.93
2023-02-11T00:15:21.266Z,4.20
2023-02-11T00:17:47.806Z,4.40
2023-02-11T00:20:14.381Z,4.75
2023-02-11T00:22:40.968Z,5.35
2023-02-11T00:25:07.953Z,5.03
2023-02-11T00:27:34.558Z,7.47
2023-02-11T00:30:02.385Z,4.88
2023-02-11T00:32:28.881Z,4.57
2023-02-11T00:34:55.521Z,5.55
2023-02-11T00:37:22.669Z,4.95
2023-02-11T00:39:50.243Z,5.15
2023-02-11T00:42:17.000Z,4.88
2023-02-11T00:44:43.484Z,4.95
2023-02-11T00:47:09.995Z,4.47
2023-02-11T00:49:36.996Z,4.88
2023-02-11T00:52:03.769Z,4.93
2023-02-11T00:54:30.311Z,5.13
2023-02-11T00:56:56.859Z,5.15
2023-02-11T00:59:23.430Z,5.05
2023-02-11T01:01:50.126Z,5.38
2023-02-11T01:04:16.795Z,4.13
2023-02-11T01:06:43.347Z,5.10
2023-02-11T01:09:09.912Z,4.35
2023-02-11T01:11:36.576Z,4.28
2023-02-11T01:14:03.134Z,4.40
2023-02-11T01:16:29.705Z,4.47
2023-02-11T01:18:56.301Z,4.53
2023-02-11T01:21:22.825Z,4.65
2023-02-11T01:23:49.400Z,4.70
2023-02-11T01:26:16.205Z,4.43
2023-02-11T01:28:42.766Z,4.97
2023-02-11T01:31:09.463Z,4.28
2023-02-11T01:33:36.154Z,3.25
2023-02-11T01:36:04.793Z,4.38
2023-02-11T01:38:32.025Z,3.67
2023-02-11T01:41:04.337Z,4.13
2023-02-11T01:43:34.003Z,4.10
2023-02-11T01:46:05.523Z,3.65
2023-02-11T01:48:36.554Z,3.55
2023-02-11T01:51:09.681Z,3.60
2023-02-11T01:53:55.870Z,3.40
2023-02-11T01:56:41.508Z,3.38
2023-02-11T01:59:13.739Z,3.45
2023-02-11T02:01:40.872Z,3.33
2023-02-11T02:04:09.007Z,3.45
2023-02-11T02:06:48.033Z,4.60
2023-02-11T02:09:24.183Z,3.90
2023-02-11T02:11:51.211Z,3.13
2023-02-11T02:14:18.123Z,3.53
2023-02-11T02:16:44.984Z,4.03
2023-02-11T02:19:30.294Z,4.05
2023-02-11T02:22:30.914Z,3.33
2023-02-11T02:25:28.162Z,3.72
2023-02-11T02:28:13.567Z,3.00
2023-02-11T02:30:51.867Z,3.25
2023-02-11T02:33:25.400Z,4.43
2023-02-11T02:36:04.364Z,3.58
2023-02-11T02:39:08.929Z,4.65
2023-02-11T02:41:36.021Z,2.85
2023-02-11T02:44:02.658Z,4.30
2023-02-11T02:46:32.412Z,2.85
2023-02-11T02:48:59.313Z,3.13
2023-02-11T02:51:39.744Z,2.78
2023-02-11T02:54:15.092Z,2.65
2023-02-11T02:56:58.213Z,3.28
2023-02-11T03:00:07.074Z,3.70
2023-02-11T03:02:39.487Z,2.90
2023-02-11T03:05:17.921Z,2.45
2023-02-11T03:08:08.590Z,2.83
2023-02-11T03:10:47.448Z,2.35
2023-02-11T03:13:17.101Z,3.30
2023-02-11T03:15:46.679Z,2.63
2023-02-11T03:18:15.750Z,2.50
2023-02-11T03:20:45.416Z,2.08
2023-02-11T03:23:33.185Z,2.40
2023-02-11T03:26:04.674Z,2.20
2023-02-11T03:28:54.706Z,2.08
2023-02-11T03:31:32.987Z,2.78
2023-02-11T03:34:04.443Z,3.35
2023-02-11T03:36:56.023Z,2.75
2023-02-11T03:39:28.955Z,2.72
2023-02-11T03:41:56.646Z,2.50
2023-02-11T03:44:25.704Z,2.33
2023-02-11T03:46:52.987Z,2.47
2023-02-11T03:49:21.764Z,2.03
2023-02-11T03:51:51.637Z,2.85
2023-02-11T03:54:23.470Z,2.25
2023-02-11T03:56:53.596Z,2.75
2023-02-11T03:59:20.105Z,3.20
2023-02-11T04:01:46.709Z,2.45
2023-02-11T04:04:13.317Z,2.70
2023-02-11T04:06:39.902Z,2.33
2023-02-11T04:09:06.957Z,2.70
2023-02-11T04:11:33.636Z,2.30
2023-02-11T04:14:00.221Z,2.10
2023-02-11T04:16:27.134Z,2.47
2023-02-11T04:18:53.704Z,2.33
2023-02-11T04:21:20.225Z,3.28
2023-02-11T04:23:46.814Z,2.70
2023-02-11T04:26:13.311Z,3.25
2023-02-11T04:28:39.901Z,2.30
2023-02-11T04:31:06.540Z,3.03
2023-02-11T04:33:33.018Z,2.35
2023-02-11T04:35:59.588Z,2.83
2023-02-11T04:38:26.437Z,2.55
2023-02-11T04:40:52.926Z,2.83
2023-02-11T04:43:19.454Z,3.05
2023-02-11T04:45:46.037Z,2.53
2023-02-11T04:48:12.579Z,1.88
2023-02-11T04:50:39.138Z,2.00
2023-02-11T04:53:05.634Z,2.60
2023-02-11T04:55:32.176Z,2.53
2023-02-11T04:57:58.695Z,1.73
2023-02-11T05:00:25.268Z,2.88
2023-02-11T05:02:51.819Z,1.80
2023-02-11T05:05:18.535Z,2.30
2023-02-11T05:07:45.199Z,2.22
2023-02-11T05:10:11.710Z,1.70
2023-02-11T05:12:38.238Z,1.83
2023-02-11T05:15:05.386Z,1.90
2023-02-11T05:17:31.919Z,2.30
2023-02-11T05:19:58.514Z,1.75
2023-02-11T05:22:25.072Z,2.05
2023-02-11T05:24:51.582Z,1.70
2023-02-11T05:27:18.152Z,1.60
2023-02-11T05:29:44.664Z,2.13
2023-02-11T05:32:12.201Z,2.15
2023-02-11T05:34:38.733Z,1.90
2023-02-11T05:37:05.382Z,1.80
2023-02-11T05:39:31.902Z,2.28
2023-02-11T05:41:58.399Z,2.67
2023-02-11T05:44:24.911Z,1.85
2023-02-11T05:46:51.419Z,1.85
2023-02-11T05:49:18.202Z,1.90
2023-02-11T05:51:44.832Z,1.65
2023-02-11T05:54:11.466Z,2.08
2023-02-11T05:56:38.004Z,1.73
2023-02-11T05:59:04.597Z,2.00
2023-02-11T06:01:31.152Z,1.70
2023-02-11T06:03:57.822Z,2.00
2023-02-11T06:06:25.287Z,1.60
2023-02-11T06:08:51.925Z,1.58
2023-02-11T06:11:18.463Z,2.03
2023-02-11T06:13:45.631Z,1.88
2023-02-11T06:16:12.410Z,2.70
2023-02-11T06:18:39.138Z,1.70
2023-02-11T06:21:10.061Z,1.83
2023-02-11T06:23:36.908Z,1.98
2023-02-11T06:26:05.459Z,2.05
2023-02-11T06:28:32.577Z,1.23
2023-02-11T06:31:04.403Z,1.88
2023-02-11T06:33:30.999Z,2.38
2023-02-11T06:35:57.550Z,1.48
2023-02-11T06:38:24.140Z,1.58
2023-02-11T06:40:50.711Z,1.85
2023-02-11T06:43:17.517Z,1.58
2023-02-11T06:45:44.094Z,2.10
2023-02-11T06:48:10.634Z,2.03
2023-02-11T06:50:37.300Z,1.67
2023-02-11T06:53:04.143Z,1.50
2023-02-11T06:55:30.728Z,2.05
2023-02-11T06:57:57.216Z,1.65
2023-02-11T07:00:23.794Z,1.60
2023-02-11T07:02:50.353Z,1.73
2023-02-11T07:05:16.953Z,1.80
2023-02-11T07:07:43.424Z,2.10
2023-02-11T07:10:10.055Z,2.33
2023-02-11T07:12:36.629Z,3.03
2023-02-11T07:15:03.278Z,1.70
2023-02-11T07:17:29.916Z,2.10
2023-02-11T07:19:56.516Z,1.05
2023-02-11T07:22:23.097Z,1.45
2023-02-11T07:24:49.667Z,1.30
2023-02-11T07:27:16.235Z,1.40
2023-02-11T07:29:43.167Z,1.73
2023-02-11T07:32:19.574Z,1.95
2023-02-11T07:34:50.493Z,1.50
2023-02-11T07:37:18.565Z,1.33
2023-02-11T07:39:45.120Z,1.50
2023-02-11T07:42:11.755Z,1.42
2023-02-11T07:44:38.285Z,1.55
2023-02-11T07:47:04.931Z,2.00
2023-02-11T07:49:31.601Z,1.45
2023-02-11T07:51:58.125Z,1.40
2023-02-11T07:54:24.785Z,1.38
2023-02-11T07:56:51.542Z,1.45
2023-02-11T07:59:18.174Z,2.40
2023-02-11T08:01:45.555Z,2.22
2023-02-11T08:04:12.095Z,1.42
2023-02-11T08:06:41.775Z,1.92
2023-02-11T08:09:10.879Z,1.73
2023-02-11T08:11:37.473Z,2.20
2023-02-11T08:14:04.182Z,1.77
2023-02-11T08:16:34.967Z,1.88
2023-02-11T08:19:04.102Z,1.80
2023-02-11T08:21:30.785Z,1.55
2023-02-11T08:23:57.579Z,2.20
2023-02-11T08:26:27.315Z,1.52
2023-02-11T08:28:55.714Z,1.60
2023-02-11T08:31:27.841Z,1.42
2023-02-11T08:33:57.903Z,1.60
2023-02-11T08:36:26.779Z,2.53
2023-02-11T08:39:05.620Z,1.35
2023-02-11T08:41:38.922Z,1.85
2023-02-11T08:44:05.582Z,1.90
2023-02-11T08:46:32.189Z,1.90
2023-02-11T08:48:58.831Z,1.52
2023-02-11T08:51:27.908Z,2.08
2023-02-11T08:53:55.349Z,2.00
2023-02-11T08:56:23.444Z,1.77
2023-02-11T08:58:50.284Z,2.03
2023-02-11T09:01:22.331Z,1.80
2023-02-11T09:03:49.383Z,1.50
2023-02-11T09:06:17.761Z,1.67
2023-02-11T09:08:47.072Z,1.75
2023-02-11T09:11:14.029Z,1.92
2023-02-11T09:13:41.717Z,1.80
2023-02-11T09:16:08.822Z,2.47
2023-02-11T09:18:35.394Z,2.35
2023-02-11T09:21:06.934Z,2.47
2023-02-11T09:23:34.609Z,2.00
2023-02-11T09:26:09.179Z,2.20
2023-02-11T09:28:36.276Z,2.15
2023-02-11T09:31:23.894Z,2.35
2023-02-11T09:33:54.004Z,1.70
2023-02-11T09:36:26.401Z,3.03
2023-02-11T09:38:53.394Z,2.05
2023-02-11T09:41:41.178Z,2.60
2023-02-11T09:44:10.709Z,3.35
2023-02-11T09:46:41.137Z,2.88
2023-02-11T09:49:08.306Z,2.30
2023-02-11T09:51:43.490Z,2.80
2023-02-11T09:54:14.091Z,2.60
2023-02-11T09:56:40.623Z,2.30
2023-02-11T09:59:11.330Z,3.15
2023-02-11T10:01:44.031Z,4.32
2023-02-11T10:04:13.544Z,2.90
2023-02-11T10:06:44.868Z,3.08
2023-02-11T10:09:32.826Z,2.30
2023-02-11T10:12:11.402Z,2.67
2023-02-11T10:14:50.137Z,4.30
2023-02-11T10:17:46.524Z,2.95
2023-02-11T10:20:31.403Z,3.28
2023-02-11T10:23:01.272Z,2.92
2023-02-11T10:25:35.097Z,3.17
2023-02-11T10:28:12.214Z,3.30
2023-02-11T10:30:47.638Z,2.75
2023-02-11T10:33:38.015Z,3.78
2023-02-11T10:36:05.009Z,2.95
2023-02-11T10:38:36.744Z,3.63
2023-02-11T10:41:03.935Z,3.00
2023-02-11T10:43:31.579Z,3.38
2023-02-11T10:45:59.372Z,3.28
2023-02-11T10:48:42.933Z,3.60
2023-02-11T10:51:17.614Z,2.45
2023-02-11T10:53:45.945Z,2.85
2023-02-11T10:56:35.006Z,3.25
2023-02-11T10:59:37.586Z,3.47
2023-02-11T11:02:23.326Z,2.97
2023-02-11T11:04:49.994Z,4.68
2023-02-11T11:07:21.841Z,2.83
2023-02-11T11:09:53.614Z,3.80
2023-02-11T11:12:28.903Z,4.68
2023-02-11T11:15:00.357Z,3.10
2023-02-11T11:17:30.274Z,3.47
2023-02-11T11:20:20.332Z,3.55
2023-02-11T11:22:47.800Z,3.17
2023-02-11T11:25:21.511Z,3.25
2023-02-11T11:27:53.441Z,3.55
2023-02-11T11:30:20.349Z,3.63
2023-02-11T11:32:47.093Z,3.63
2023-02-11T11:35:34.663Z,3.60
2023-02-11T11:38:04.060Z,3.17
2023-02-11T11:43:22.633Z,3.22
2023-02-11T11:45:55.071Z,3.47
2023-02-11T11:48:40.552Z,3.40
2023-02-11T11:51:12.167Z,3.03
2023-02-11T11:53:56.703Z,4.03
2023-02-11T11:56:26.540Z,3.28
2023-02-11T11:58:54.348Z,3.20
2023-02-11T12:01:40.509Z,3.10
2023-02-11T12:04:44.804Z,3.38
2023-02-11T12:07:27.499Z,3.22
2023-02-11T12:10:28.253Z,3.63
2023-02-11T12:13:12.777Z,3.72
2023-02-11T12:15:54.597Z,4.07
2023-02-11T12:18:57.398Z,3.35
2023-02-11T12:21:39.001Z,3.60
2023-02-11T12:24:33.107Z,5.18
2023-02-11T12:27:08.224Z,4.40
2023-02-11T12:29:40.902Z,3.90
2023-02-11T12:32:36.507Z,4.80
2023-02-11T12:35:15.545Z,4.32
2023-02-11T12:37:59.316Z,5.30
2023-02-11T12:40:32.052Z,4.25
2023-02-11T12:43:17.439Z,5.00
2023-02-11T12:46:16.028Z,4.28
2023-02-11T12:48:58.428Z,4.88
2023-02-11T12:51:53.518Z,4.70
2023-02-11T12:54:33.203Z,4.13
2023-02-11T12:57:07.773Z,4.00
2023-02-11T13:00:05.147Z,5.22
2023-02-11T13:02:43.817Z,4.60
2023-02-11T13:05:49.776Z,5.88
2023-02-11T13:08:45.022Z,4.03
2023-02-11T13:11:15.066Z,4.78
2023-02-11T13:14:13.186Z,4.65
2023-02-11T13:16:42.190Z,4.73
2023-02-11T13:19:08.777Z,4.78
2023-02-11T13:21:41.703Z,5.03
2023-02-11T13:24:14.263Z,5.15
2023-02-11T13:27:03.617Z,5.80
2023-02-11T13:29:56.152Z,4.65
2023-02-11T13:32:22.657Z,5.70
2023-02-11T13:34:52.288Z,4.85
2023-02-11T13:37:37.806Z,5.03
2023-02-11T13:40:22.531Z,4.47
2023-02-11T13:42:53.975Z,5.15
2023-02-11T13:45:40.552Z,5.30
2023-02-11T13:48:25.656Z,4.68
2023-02-11T13:50:54.736Z,4.78
2023-02-11T13:53:22.253Z,4.88
2023-02-11T13:55:51.744Z,4.57
2023-02-11T13:58:28.712Z,4.60
2023-02-11T14:00:55.527Z,4.85
2023-02-11T14:03:49.358Z,4.65
2023-02-11T14:06:38.010Z,4.85
2023-02-11T14:09:10.629Z,4.53
2023-02-11T14:11:40.877Z,5.00
2023-02-11T14:14:25.782Z,6.18
2023-02-11T14:16:58.688Z,4.13
2023-02-11T14:19:38.355Z,4.85
2023-02-11T14:22:16.505Z,4.85
2023-02-11T14:24:54.212Z,4.93
2023-02-11T14:27:31.240Z,4.82
2023-02-11T14:30:16.278Z,5.43
2023-02-11T14:33:07.666Z,4.85
2023-02-11T14:35:41.908Z,5.10
2023-02-11T14:38:14.469Z,5.80
2023-02-11T14:41:07.873Z,4.53
2023-02-11T14:43:45.509Z,5.78
2023-02-11T14:46:12.182Z,5.35
2023-02-11T14:48:40.020Z,5.35
2023-02-11T14:51:13.293Z,4.65
2023-02-11T14:53:44.587Z,4.32
2023-02-11T14:56:26.785Z,4.88
2023-02-11T14:58:54.995Z,4.97
2023-02-11T15:01:35.263Z,4.68
2023-02-11T15:04:03.681Z,4.60
2023-02-11T15:06:38.026Z,5.15
2023-02-11T15:09:06.447Z,4.30
2023-02-11T15:11:40.255Z,4.38
2023-02-11T15:14:09.743Z,4.72
2023-02-11T15:16:41.507Z,4.30
2023-02-11T15:19:20.252Z,5.55
2023-02-11T15:21:47.792Z,5.22
2023-02-11T15:24:26.730Z,5.15
2023-02-11T15:26:57.871Z,4.72
2023-02-11T15:29:27.933Z,4.65
2023-02-11T15:32:25.700Z,4.50
2023-02-11T15:34:54.306Z,5.03
2023-02-11T15:37:29.855Z,4.80
2023-02-11T15:40:12.460Z,3.85
2023-02-11T15:42:52.217Z,5.05
2023-02-11T15:45:28.692Z,5.50
2023-02-11T15:48:14.905Z,4.85
2023-02-11T15:50:43.418Z,4.93
2023-02-11T15:53:26.943Z,4.88
2023-02-11T15:56:08.165Z,4.93
2023-02-11T15:58:39.080Z,4.80
2023-02-11T16:01:06.143Z,4.85
2023-02-11T16:03:33.176Z,4.68
2023-02-11T16:06:20.172Z,5.32
2023-02-11T16:08:59.745Z,4.75
2023-02-11T16:11:48.744Z,4.57
2023-02-11T16:14:21.430Z,5.45
2023-02-11T16:16:51.134Z,4.65
2023-02-11T16:19:25.237Z,4.32
2023-02-11T16:21:52.300Z,4.72
2023-02-11T16:24:30.436Z,4.15
2023-02-11T16:26:59.994Z,5.32
2023-02-11T16:32:04.756Z,4.22
2023-02-11T16:34:31.384Z,4.40
2023-02-11T16:36:58.125Z,3.60
2023-02-11T16:39:24.701Z,3.75
2023-02-11T16:41:52.077Z,4.70
2023-02-11T16:44:18.900Z,4.80
2023-02-11T16:46:45.824Z,5.03
2023-02-11T16:49:23.005Z,4.63
2023-02-11T16:51:51.674Z,3.53
2023-02-11T16:54:18.675Z,4.50
2023-02-11T16:56:45.962Z,3.88
2023-02-11T16:59:12.514Z,4.82
2023-02-11T17:01:40.792Z,3.65
2023-02-11T17:04:07.790Z,4.07
2023-02-11T17:06:35.160Z,3.55
2023-02-11T17:09:02.008Z,4.40
2023-02-11T17:11:28.737Z,4.45
2023-02-11T17:13:55.327Z,4.07
2023-02-11T17:16:25.026Z,5.50
2023-02-11T17:18:51.785Z,5.07
2023-02-11T17:21:21.149Z,5.03
2023-02-11T17:23:47.875Z,6.35
2023-02-11T17:26:20.456Z,5.50
2023-02-11T17:28:48.310Z,4.95
2023-02-11T17:31:15.250Z,5.18
2023-02-11T17:33:42.160Z,4.55
2023-02-11T17:36:16.762Z,4.90
2023-02-11T17:38:43.408Z,5.45
2023-02-11T17:41:10.248Z,4.43
2023-02-11T17:43:37.115Z,4.95
2023-02-11T17:46:06.911Z,4.72
2023-02-11T17:48:34.137Z,5.35
2023-02-11T17:51:00.746Z,4.93
2023-02-11T17:53:27.324Z,4.63
2023-02-11T17:55:56.008Z,6.88
2023-02-11T17:58:23.491Z,8.30
2023-02-11T18:00:52.154Z,8.52
2023-02-11T18:03:18.772Z,10.60
2023-02-11T18:05:45.330Z,10.13
2023-02-11T18:08:17.802Z,10.82
2023-02-11T18:10:44.909Z,9.20
2023-02-11T18:16:06.321Z,7.80
2023-02-11T18:18:32.933Z,6.00
2023-02-11T18:21:01.347Z,5.65
2023-02-11T18:23:28.237Z,5.07
2023-02-11T18:25:54.892Z,4.55
2023-02-11T18:28:21.714Z,6.18
2023-02-11T18:30:48.358Z,5.45
2023-02-11T18:33:26.984Z,5.43
2023-02-11T18:35:58.216Z,5.40
2023-02-11T18:38:27.731Z,4.38
2023-02-11T18:43:23.610Z,5.53
2023-02-11T18:45:51.250Z,5.47
2023-02-11T18:48:18.310Z,6.05
2023-02-11T18:50:46.058Z,7.20
2023-02-11T18:53:24.765Z,6.68
2023-02-11T18:55:59.397Z,6.28
2023-02-11T18:58:28.821Z,5.78
2023-02-11T19:00:55.878Z,5.53
2023-02-11T19:03:22.505Z,5.15
2023-02-11T19:05:49.723Z,6.10
2023-02-11T19:08:17.211Z,5.95
2023-02-11T19:10:45.966Z,6.78
2023-02-11T19:13:14.514Z,5.95
2023-02-11T19:15:45.802Z,6.13
2023-02-11T19:18:14.041Z,6.68
2023-02-11T19:20:42.228Z,6.75
2023-02-11T19:23:09.292Z,7.85
2023-02-11T19:25:36.215Z,7.68
2023-02-11T19:28:03.405Z,7.88
2023-02-11T19:30:30.306Z,6.72
2023-02-11T19:32:57.917Z,5.50
2023-02-11T19:35:25.440Z,5.47
2023-02-11T19:37:52.042Z,6.18
2023-02-11T19:40:19.317Z,6.20
2023-02-11T19:42:45.973Z,7.07
2023-02-11T19:45:12.795Z,6.85
2023-02-11T19:47:39.403Z,5.75
2023-02-11T19:50:06.592Z,5.72
2023-02-11T19:52:33.162Z,6.25
2023-02-11T19:55:00.592Z,6.78
2023-02-11T19:57:27.183Z,5.63
2023-02-11T19:59:55.040Z,5.65
2023-02-11T20:02:21.828Z,6.68
2023-02-11T20:04:48.500Z,6.18
2023-02-11T20:07:15.196Z,6.13
2023-02-11T20:09:42.698Z,6.25
2023-02-11T20:12:09.710Z,6.85
2023-02-11T20:14:36.308Z,6.38
2023-02-11T20:17:02.874Z,7.70
2023-02-11T20:19:30.796Z,8.27
2023-02-11T20:21:57.403Z,7.40
2023-02-11T20:24:25.324Z,7.28
2023-02-11T20:26:55.629Z,8.43
2023-02-11T20:29:22.754Z,6.55
2023-02-11T20:31:50.215Z,5.55
2023-02-11T20:34:17.873Z,6.15
2023-02-11T20:36:51.527Z,4.97
2023-02-11T20:39:18.755Z,5.25
2023-02-11T20:41:46.255Z,6.28
2023-02-11T20:44:13.794Z,6.70
2023-02-11T20:46:46.530Z,5.88
2023-02-11T20:49:15.658Z,6.43
2023-02-11T20:51:42.758Z,5.97
2023-02-11T20:54:15.209Z,4.75
2023-02-11T20:56:42.378Z,5.45
2023-02-11T20:59:09.377Z,4.97
2023-02-11T21:01:40.308Z,5.47
2023-02-11T21:04:14.092Z,5.63
2023-02-11T21:06:43.959Z,5.57
2023-02-11T21:09:13.543Z,5.13
2023-02-11T21:14:07.316Z,5.30
2023-02-11T21:16:34.072Z,4.88
2023-02-11T21:19:01.381Z,4.63
2023-02-11T21:21:28.056Z,6.97
2023-02-11T21:23:56.156Z,5.38
2023-02-11T21:26:23.384Z,6.13
2023-02-11T21:28:50.251Z,5.70
2023-02-11T21:31:28.722Z,5.80
2023-02-11T21:33:56.050Z,5.73
2023-02-11T21:36:23.606Z,5.72
2023-02-11T21:38:50.738Z,5.65
2023-02-11T21:41:18.381Z,5.53
2023-02-11T21:43:45.457Z,5.55
2023-02-11T21:46:14.731Z,5.10
2023-02-11T21:48:41.631Z,5.63
2023-02-11T21:51:19.585Z,4.93
2023-02-11T21:53:46.524Z,6.30
2023-02-11T21:56:16.199Z,6.28
2023-02-11T21:58:43.689Z,6.50
2023-02-11T22:01:15.023Z,8.05
2023-02-11T22:03:42.012Z,6.63
2023-02-11T22:06:10.558Z,5.13
2023-02-11T22:08:37.639Z,7.03
2023-02-11T22:11:05.639Z,6.55
2023-02-11T22:13:33.351Z,7.18
2023-02-11T22:16:01.042Z,5.85
2023-02-11T22:18:27.816Z,6.03
2023-02-11T22:20:59.531Z,5.63
2023-02-11T22:23:26.049Z,5.28
2023-02-11T22:25:52.821Z,4.38
2023-02-11T22:28:20.084Z,5.95
2023-02-11T22:30:46.859Z,5.47
2023-02-11T22:33:13.346Z,5.07
2023-02-11T22:35:39.930Z,6.38
2023-02-11T22:38:06.428Z,5.03
2023-02-11T22:40:32.920Z,6.40
2023-02-11T22:42:59.423Z,5.40
2023-02-11T22:45:25.946Z,7.35
2023-02-11T22:47:54.126Z,5.55
2023-02-11T22:50:20.653Z,6.50
2023-02-11T22:52:47.172Z,5.65
2023-02-11T22:55:13.805Z,5.07
2023-02-11T22:57:40.355Z,6.20
2023-02-11T23:00:09.860Z,6.63
2023-02-11T23:05:03.518Z,6.07
2023-02-11T23:07:30.016Z,5.75
2023-02-11T23:09:56.716Z,5.55
2023-02-11T23:12:23.346Z,5.20
2023-02-11T23:14:51.105Z,6.07
2023-02-11T23:17:19.543Z,6.03
2023-02-11T23:19:46.515Z,6.30
2023-02-11T23:22:13.120Z,5.57
2023-02-11T23:24:39.714Z,4.75
2023-02-11T23:27:06.294Z,4.95
2023-02-11T23:29:32.814Z,4.43
2023-02-11T23:31:59.400Z,5.00
2023-02-11T23:34:26.207Z,4.97
2023-02-11T23:36:52.741Z,4.55
2023-02-11T23:39:19.275Z,3.97
2023-02-11T23:41:46.044Z,5.72
2023-02-11T23:44:12.899Z,5.10
2023-02-11T23:46:39.467Z,4.32
2023-02-11T23:49:06.006Z,4.07
2023-02-11T23:51:32.516Z,5.50
2023-02-11T23:53:59.076Z,5.18
2023-02-11T23:56:27.733Z,6.45
2023-02-11T23:58:56.248Z,5.60
